sensor_id;sensor_type;location;lat;lon;timestamp;pressure;altitude;pressure_sealevel;temperature;humidity
50790;BME280;37287;47.554;7.844;2022-09-12T00:01:05;97903.56;;;11.23;100.00
50790;BME280;37287;47.554;7.844;2022-09-12T00:03:35;97898.53;;;11.22;100.00
50790;BME280;37287;47.554;7.844;2022-09-12T00:06:07;97892.31;;;11.17;100.00
50790;BME280;37287;47.554;7.844;2022-09-12T00:08:34;97894.63;;;11.19;100.00
50790;BME280;37287;47.554;7.844;2022-09-12T00:11:06;97888.41;;;11.15;100.00
50790;BME280;37287;47.554;7.844;2022-09-12T00:13:34;97889.97;;;11.19;100.00
50790;BME280;37287;47.554;7.844;2022-09-12T00:16:06;97888.84;;;11.21;100.00
50790;BME280;37287;47.554;7.844;2022-09-12T00:18:35;97887.66;;;11.18;100.00
50790;BME280;37287;47.554;7.844;2022-09-12T00:21:03;97884.94;;;11.14;100.00
50790;BME280;37287;47.554;7.844;2022-09-12T00:23:31;97889.94;;;11.09;100.00
50790;BME280;37287;47.554;7.844;2022-09-12T00:26:03;97890.72;;;11.09;100.00
50790;BME280;37287;47.554;7.844;2022-09-12T00:28:33;97882.56;;;11.06;100.00
50790;BME280;37287;47.554;7.844;2022-09-12T00:31:04;97884.09;;;11.07;100.00
50790;BME280;37287;47.554;7.844;2022-09-12T00:33:35;97879.03;;;10.98;100.00
50790;BME280;37287;47.554;7.844;2022-09-12T00:36:08;97882.13;;;10.96;100.00
50790;BME280;37287;47.554;7.844;2022-09-12T00:38:35;97874.41;;;11.02;100.00
50790;BME280;37287;47.554;7.844;2022-09-12T00:41:06;97877.09;;;10.98;100.00
50790;BME280;37287;47.554;7.844;2022-09-12T00:43:43;97879.03;;;10.98;100.00
50790;BME280;37287;47.554;7.844;2022-09-12T00:51:32;97876.63;;;10.86;100.00
50790;BME280;37287;47.554;7.844;2022-09-12T00:54:05;97870.41;;;10.81;100.00
50790;BME280;37287;47.554;7.844;2022-09-12T00:56:38;97868.88;;;10.80;100.00
50790;BME280;37287;47.554;7.844;2022-09-12T00:59:11;97867.31;;;10.79;100.00
50790;BME280;37287;47.554;7.844;2022-09-12T01:01:43;97868.41;;;10.71;100.00
50790;BME280;37287;47.554;7.844;2022-09-12T01:04:12;97868.78;;;10.66;100.00
50790;BME280;37287;47.554;7.844;2022-09-12T01:06:41;97864.50;;;10.69;100.00
50790;BME280;37287;47.554;7.844;2022-09-12T01:09:14;97871.13;;;10.71;100.00
50790;BME280;37287;47.554;7.844;2022-09-12T01:11:43;97860.28;;;10.71;100.00
50790;BME280;37287;47.554;7.844;2022-09-12T01:14:15;97858.72;;;10.66;100.00
50790;BME280;37287;47.554;7.844;2022-09-12T01:16:43;97854.00;;;10.60;100.00
50790;BME280;37287;47.554;7.844;2022-09-12T01:30:52;97850.94;;;10.61;100.00
50790;BME280;37287;47.554;7.844;2022-09-12T01:33:27;97854.44;;;10.62;100.00
50790;BME280;37287;47.554;7.844;2022-09-12T01:38:59;97842.34;;;10.48;100.00
50790;BME280;37287;47.554;7.844;2022-09-12T01:41:51;97838.44;;;10.42;100.00
50790;BME280;37287;47.554;7.844;2022-09-12T01:50:04;97842.16;;;10.30;100.00
50790;BME280;37287;47.554;7.844;2022-09-12T01:52:42;97834.78;;;10.24;100.00
50790;BME280;37287;47.554;7.844;2022-09-12T01:58:16;97836.69;;;10.23;100.00
50790;BME280;37287;47.554;7.844;2022-09-12T02:03:18;97838.59;;;10.19;100.00
50790;BME280;37287;47.554;7.844;2022-09-12T02:05:55;97833.97;;;10.23;100.00
50790;BME280;37287;47.554;7.844;2022-09-12T02:08:32;97837.06;;;10.22;100.00
50790;BME280;37287;47.554;7.844;2022-09-12T02:11:07;97841.28;;;10.15;100.00
50790;BME280;37287;47.554;7.844;2022-09-12T02:13:40;97837.38;;;10.13;100.00
50790;BME280;37287;47.554;7.844;2022-09-12T02:16:10;97833.88;;;10.09;100.00
50790;BME280;37287;47.554;7.844;2022-09-12T02:18:44;97836.56;;;10.09;100.00
50790;BME280;37287;47.554;7.844;2022-09-12T02:21:12;97833.50;;;10.10;100.00
50790;BME280;37287;47.554;7.844;2022-09-12T02:23:42;97832.69;;;10.06;100.00
50790;BME280;37287;47.554;7.844;2022-09-12T02:26:20;97834.25;;;10.07;100.00
50790;BME280;37287;47.554;7.844;2022-09-12T02:28:48;97836.91;;;10.04;100.00
50790;BME280;37287;47.554;7.844;2022-09-12T02:31:26;97838.03;;;9.99;100.00
50790;BME280;37287;47.554;7.844;2022-09-12T02:34:12;97830.34;;;10.01;100.00
50790;BME280;37287;47.554;7.844;2022-09-12T02:37:06;97824.53;;;10.03;100.00
50790;BME280;37287;47.554;7.844;2022-09-12T02:39:36;97827.28;;;10.06;100.00
50790;BME280;37287;47.554;7.844;2022-09-12T02:42:10;97833.38;;;9.96;100.00
50790;BME280;37287;47.554;7.844;2022-09-12T02:44:37;97823.31;;;9.96;100.00
50790;BME280;37287;47.554;7.844;2022-09-12T02:47:08;97814.03;;;9.94;100.00
50790;BME280;37287;47.554;7.844;2022-09-12T02:49:40;97813.25;;;9.93;100.00
50790;BME280;37287;47.554;7.844;2022-09-12T02:52:07;97819.78;;;9.89;100.00
50790;BME280;37287;47.554;7.844;2022-09-12T02:54:34;97822.16;;;9.94;100.00
50790;BME280;37287;47.554;7.844;2022-09-12T02:57:14;97818.75;;;10.04;100.00
50790;BME280;37287;47.554;7.844;2022-09-12T02:59:49;97817.94;;;10.00;100.00
50790;BME280;37287;47.554;7.844;2022-09-12T03:05:24;97820.16;;;9.91;100.00
50790;BME280;37287;47.554;7.844;2022-09-12T03:16:50;97825.56;;;9.87;100.00
50790;BME280;37287;47.554;7.844;2022-09-12T03:19:30;97832.44;;;9.81;100.00
50790;BME280;37287;47.554;7.844;2022-09-12T03:22:18;97824.31;;;9.77;100.00
50790;BME280;37287;47.554;7.844;2022-09-12T03:27:44;97817.31;;;9.73;100.00
50790;BME280;37287;47.554;7.844;2022-09-12T03:30:13;97818.03;;;9.70;100.00
50790;BME280;37287;47.554;7.844;2022-09-12T03:32:48;97820.03;;;9.73;100.00
50790;BME280;37287;47.554;7.844;2022-09-12T03:35:20;97823.41;;;9.66;100.00
50790;BME280;37287;47.554;7.844;2022-09-12T03:37:49;97817.22;;;9.66;100.00
50790;BME280;37287;47.554;7.844;2022-09-12T03:40:16;97814.88;;;9.64;100.00
50790;BME280;37287;47.554;7.844;2022-09-12T03:42:43;97816.44;;;9.65;100.00
50790;BME280;37287;47.554;7.844;2022-09-12T03:45:10;97814.50;;;9.66;100.00
50790;BME280;37287;47.554;7.844;2022-09-12T03:47:36;97818.09;;;9.77;100.00
50790;BME280;37287;47.554;7.844;2022-09-12T03:50:05;97821.63;;;9.81;100.00
50790;BME280;37287;47.554;7.844;2022-09-12T03:52:32;97815.88;;;9.86;100.00
50790;BME280;37287;47.554;7.844;2022-09-12T03:55:00;97817.41;;;9.84;100.00
50790;BME280;37287;47.554;7.844;2022-09-12T03:57:30;97814.03;;;9.94;100.00
50790;BME280;37287;47.554;7.844;2022-09-12T03:59:57;97812.22;;;10.05;100.00
50790;BME280;37287;47.554;7.844;2022-09-12T04:02:23;97814.19;;;10.12;100.00
50790;BME280;37287;47.554;7.844;2022-09-12T04:04:50;97808.81;;;10.19;100.00
50790;BME280;37287;47.554;7.844;2022-09-12T04:07:18;97808.44;;;10.21;100.00
50790;BME280;37287;47.554;7.844;2022-09-12T04:09:46;97809.25;;;10.25;100.00
50790;BME280;37287;47.554;7.844;2022-09-12T04:12:13;97806.66;;;10.36;100.00
50790;BME280;37287;47.554;7.844;2022-09-12T04:14:40;97817.53;;;10.39;100.00
50790;BME280;37287;47.554;7.844;2022-09-12T04:17:07;97815.97;;;10.38;100.00
50790;BME280;37287;47.554;7.844;2022-09-12T04:19:35;97813.66;;;10.40;100.00
50790;BME280;37287;47.554;7.844;2022-09-12T04:22:02;97815.97;;;10.38;100.00
50790;BME280;37287;47.554;7.844;2022-09-12T04:24:29;97806.72;;;10.39;100.00
50790;BME280;37287;47.554;7.844;2022-09-12T04:26:56;97808.25;;;10.40;100.00
50790;BME280;37287;47.554;7.844;2022-09-12T04:29:22;97816.38;;;10.40;100.00
50790;BME280;37287;47.554;7.844;2022-09-12T04:31:51;97805.16;;;10.38;100.00
50790;BME280;37287;47.554;7.844;2022-09-12T04:34:30;97806.34;;;10.44;100.00
50790;BME280;37287;47.554;7.844;2022-09-12T04:36:57;97812.16;;;10.46;100.00
50790;BME280;37287;47.554;7.844;2022-09-12T04:39:24;97809.88;;;10.52;100.00
50790;BME280;37287;47.554;7.844;2022-09-12T04:41:52;97805.25;;;10.53;100.00
50790;BME280;37287;47.554;7.844;2022-09-12T04:44:19;97811.47;;;10.57;100.00
50790;BME280;37287;47.554;7.844;2022-09-12T04:46:46;97801.81;;;10.59;100.00
50790;BME280;37287;47.554;7.844;2022-09-12T04:49:14;97797.53;;;10.55;100.00
50790;BME280;37287;47.554;7.844;2022-09-12T04:51:45;97793.28;;;10.54;100.00
50790;BME280;37287;47.554;7.844;2022-09-12T04:54:14;97796.78;;;10.58;100.00
50790;BME280;37287;47.554;7.844;2022-09-12T04:56:45;97802.19;;;10.61;100.00
50790;BME280;37287;47.554;7.844;2022-09-12T04:59:13;97794.88;;;10.62;100.00
50790;BME280;37287;47.554;7.844;2022-09-12T05:01:43;97793.00;;;10.73;100.00
50790;BME280;37287;47.554;7.844;2022-09-12T05:04:14;97801.50;;;10.75;100.00
50790;BME280;37287;47.554;7.844;2022-09-12T05:06:41;97801.16;;;10.80;100.00
50790;BME280;37287;47.554;7.844;2022-09-12T05:09:12;97802.75;;;10.89;100.00
50790;BME280;37287;47.554;7.844;2022-09-12T05:11:43;97805.53;;;11.03;100.00
50790;BME280;37287;47.554;7.844;2022-09-12T05:14:31;97801.41;;;11.34;100.00
50790;BME280;37287;47.554;7.844;2022-09-12T05:16:58;97811.16;;;11.61;100.00
50790;BME280;37287;47.554;7.844;2022-09-12T05:19:28;97806.56;;;11.90;100.00
50790;BME280;37287;47.554;7.844;2022-09-12T05:21:57;97802.72;;;12.24;100.00
50790;BME280;37287;47.554;7.844;2022-09-12T05:24:26;97808.53;;;12.51;100.00
50790;BME280;37287;47.554;7.844;2022-09-12T05:26:52;97811.97;;;12.84;100.00
50790;BME280;37287;47.554;7.844;2022-09-12T05:29:19;97816.13;;;13.21;100.00
50790;BME280;37287;47.554;7.844;2022-09-12T05:31:46;97821.78;;;13.66;100.00
50790;BME280;37287;47.554;7.844;2022-09-12T05:34:18;97822.31;;;14.03;100.00
50790;BME280;37287;47.554;7.844;2022-09-12T05:36:45;97821.22;;;14.42;97.52
50790;BME280;37287;47.554;7.844;2022-09-12T05:39:12;97821.75;;;14.75;95.65
50790;BME280;37287;47.554;7.844;2022-09-12T05:41:38;97825.81;;;14.98;93.03
50790;BME280;37287;47.554;7.844;2022-09-12T05:44:12;97826.50;;;15.40;90.88
50790;BME280;37287;47.554;7.844;2022-09-12T05:46:42;97818.72;;;15.38;88.32
50790;BME280;37287;47.554;7.844;2022-09-12T05:49:15;97821.84;;;15.37;88.56
50790;BME280;37287;47.554;7.844;2022-09-12T05:51:43;97832.91;;;15.22;89.07
50790;BME280;37287;47.554;7.844;2022-09-12T05:54:12;97825.06;;;15.28;89.40
50790;BME280;37287;47.554;7.844;2022-09-12T05:56:41;97836.53;;;15.46;88.58
50790;BME280;37287;47.554;7.844;2022-09-12T05:59:18;97832.31;;;16.00;87.48
50790;BME280;37287;47.554;7.844;2022-09-12T06:01:45;97831.13;;;16.01;84.59
50790;BME280;37287;47.554;7.844;2022-09-12T06:04:15;97835.72;;;16.08;84.93
50790;BME280;37287;47.554;7.844;2022-09-12T06:06:43;97839.13;;;16.15;83.34
50790;BME280;37287;47.554;7.844;2022-09-12T06:09:15;97841.03;;;16.42;82.57
50790;BME280;37287;47.554;7.844;2022-09-12T06:11:44;97855.16;;;16.37;80.27
50790;BME280;37287;47.554;7.844;2022-09-12T06:14:13;97844.16;;;16.17;81.45
50790;BME280;37287;47.554;7.844;2022-09-12T06:16:42;97848.94;;;16.37;82.89
50790;BME280;37287;47.554;7.844;2022-09-12T06:19:17;97855.56;;;16.36;81.78
50790;BME280;37287;47.554;7.844;2022-09-12T06:21:45;97851.22;;;16.65;79.57
50790;BME280;37287;47.554;7.844;2022-09-12T06:24:15;97846.09;;;16.67;80.41
50790;BME280;37287;47.554;7.844;2022-09-12T06:26:43;97845.19;;;16.98;78.08
50790;BME280;37287;47.554;7.844;2022-09-12T06:29:10;97852.47;;;17.25;77.00
50790;BME280;37287;47.554;7.844;2022-09-12T06:31:40;97851.38;;;17.22;77.50
50790;BME280;37287;47.554;7.844;2022-09-12T06:34:12;97845.53;;;17.40;76.63
50790;BME280;37287;47.554;7.844;2022-09-12T06:36:42;97845.94;;;17.79;74.36
50790;BME280;37287;47.554;7.844;2022-09-12T06:39:11;97835.38;;;17.97;74.89
50790;BME280;37287;47.554;7.844;2022-09-12T06:41:39;97843.25;;;18.12;73.09
50790;BME280;37287;47.554;7.844;2022-09-12T06:44:15;97841.03;;;18.23;73.54
50790;BME280;37287;47.554;7.844;2022-09-12T06:46:44;97835.91;;;18.42;70.55
50790;BME280;37287;47.554;7.844;2022-09-12T06:49:10;97832.28;;;18.61;71.33
50790;BME280;37287;47.554;7.844;2022-09-12T06:51:37;97832.91;;;18.82;71.31
50790;BME280;37287;47.554;7.844;2022-09-12T06:54:06;97830.88;;;19.15;69.53
50790;BME280;37287;47.554;7.844;2022-09-12T06:56:33;97832.69;;;19.35;68.22
50790;BME280;37287;47.554;7.844;2022-09-12T06:58:59;97834.91;;;18.98;68.63
50790;BME280;37287;47.554;7.844;2022-09-12T07:01:30;97836.22;;;18.60;70.16
50790;BME280;37287;47.554;7.844;2022-09-12T07:03:59;97827.72;;;18.87;68.45
50790;BME280;37287;47.554;7.844;2022-09-12T07:06:34;97817.25;;;18.99;69.20
50790;BME280;37287;47.554;7.844;2022-09-12T07:09:04;97819.44;;;19.04;67.56
50790;BME280;37287;47.554;7.844;2022-09-12T07:11:36;97817.66;;;19.39;68.44
50790;BME280;37287;47.554;7.844;2022-09-12T07:14:09;97802.09;;;19.75;66.54
50790;BME280;37287;47.554;7.844;2022-09-12T07:16:37;97815.75;;;19.79;64.91
50790;BME280;37287;47.554;7.844;2022-09-12T07:19:05;97817.63;;;20.07;65.73
50790;BME280;37287;47.554;7.844;2022-09-12T07:21:32;97817.63;;;19.95;64.97
50790;BME280;37287;47.554;7.844;2022-09-12T07:24:05;97824.66;;;20.08;63.88
50790;BME280;37287;47.554;7.844;2022-09-12T07:26:33;97824.47;;;20.51;63.55
50790;BME280;37287;47.554;7.844;2022-09-12T07:29:02;97813.22;;;20.10;65.09
50790;BME280;37287;47.554;7.844;2022-09-12T07:31:50;97822.19;;;20.49;64.30
50790;BME280;37287;47.554;7.844;2022-09-12T07:34:28;97832.69;;;20.64;60.91
50790;BME280;37287;47.554;7.844;2022-09-12T07:36:55;97806.59;;;19.69;63.86
50790;BME280;37287;47.554;7.844;2022-09-12T07:39:21;97813.53;;;19.18;66.17
50790;BME280;37287;47.554;7.844;2022-09-12T07:41:49;97809.81;;;19.67;66.48
50790;BME280;37287;47.554;7.844;2022-09-12T07:44:16;97808.63;;;20.07;64.87
50790;BME280;37287;47.554;7.844;2022-09-12T07:46:43;97820.13;;;19.63;66.62
50790;BME280;37287;47.554;7.844;2022-09-12T07:49:12;97812.03;;;19.85;66.44
50790;BME280;37287;47.554;7.844;2022-09-12T07:51:38;97813.53;;;19.73;66.58
50790;BME280;37287;47.554;7.844;2022-09-12T07:54:11;97816.53;;;19.92;65.82
50790;BME280;37287;47.554;7.844;2022-09-12T07:56:42;97817.63;;;20.07;65.90
50790;BME280;37287;47.554;7.844;2022-09-12T07:59:08;97815.03;;;20.52;65.66
50790;BME280;37287;47.554;7.844;2022-09-12T08:01:35;97823.78;;;20.72;62.81
50790;BME280;37287;47.554;7.844;2022-09-12T08:04:03;97823.66;;;20.28;63.97
50790;BME280;37287;47.554;7.844;2022-09-12T08:06:33;97815.16;;;20.35;65.18
50790;BME280;37287;47.554;7.844;2022-09-12T08:09:02;97810.19;;;20.91;62.42
50790;BME280;37287;47.554;7.844;2022-09-12T08:11:29;97817.19;;;19.96;66.44
50790;BME280;37287;47.554;7.844;2022-09-12T08:13:56;97822.41;;;20.42;62.77
50790;BME280;37287;47.554;7.844;2022-09-12T08:16:26;97823.47;;;20.70;64.25
50790;BME280;37287;47.554;7.844;2022-09-12T08:21:21;97814.97;;;20.77;63.08
50790;BME280;37287;47.554;7.844;2022-09-12T08:23:58;97815.16;;;20.83;62.93
50790;BME280;37287;47.554;7.844;2022-09-12T08:26:28;97816.38;;;20.82;62.34
50790;BME280;37287;47.554;7.844;2022-09-12T08:28:56;97823.69;;;20.98;61.31
50790;BME280;37287;47.554;7.844;2022-09-12T08:31:24;97823.09;;;20.81;63.18
50790;BME280;37287;47.554;7.844;2022-09-12T08:33:57;97827.91;;;21.34;60.62
50790;BME280;37287;47.554;7.844;2022-09-12T08:36:25;97835.00;;;21.44;58.17
50790;BME280;37287;47.554;7.844;2022-09-12T08:38:55;97829.91;;;21.34;60.54
50790;BME280;37287;47.554;7.844;2022-09-12T08:41:42;97818.66;;;21.50;59.41
50790;BME280;37287;47.554;7.844;2022-09-12T08:44:23;97818.91;;;21.87;56.56
50790;BME280;37287;47.554;7.844;2022-09-12T08:50:09;97822.00;;;22.08;56.33
50790;BME280;37287;47.554;7.844;2022-09-12T08:52:55;97818.50;;;22.07;56.38
50790;BME280;37287;47.554;7.844;2022-09-12T08:55:55;97819.16;;;21.80;57.16
50790;BME280;37287;47.554;7.844;2022-09-12T08:58:36;97817.75;;;21.75;57.71
50790;BME280;37287;47.554;7.844;2022-09-12T09:01:12;97815.69;;;21.89;56.51
50790;BME280;37287;47.554;7.844;2022-09-12T09:06:23;97820.69;;;22.31;56.20
50790;BME280;37287;47.554;7.844;2022-09-12T09:09:01;97823.81;;;22.42;56.03
50790;BME280;37287;47.554;7.844;2022-09-12T09:17:27;97821.13;;;22.20;56.97
50790;BME280;37287;47.554;7.844;2022-09-12T09:26:19;97817.72;;;22.94;55.90
50790;BME280;37287;47.554;7.844;2022-09-12T09:28:53;97817.38;;;23.38;54.48
50790;BME280;37287;47.554;7.844;2022-09-12T09:31:24;97814.91;;;23.49;53.76
50790;BME280;37287;47.554;7.844;2022-09-12T09:33:53;97814.59;;;23.47;53.54
50790;BME280;37287;47.554;7.844;2022-09-12T09:44:28;97802.91;;;23.62;54.29
50790;BME280;37287;47.554;7.844;2022-09-12T09:46:57;97808.41;;;23.62;54.41
50790;BME280;37287;47.554;7.844;2022-09-12T09:49:26;97807.28;;;23.87;54.33
50790;BME280;37287;47.554;7.844;2022-09-12T09:51:57;97804.97;;;23.85;52.80
50790;BME280;37287;47.554;7.844;2022-09-12T09:54:35;97800.25;;;24.10;53.61
50790;BME280;37287;47.554;7.844;2022-09-12T10:05:50;97804.81;;;24.71;49.88
50790;BME280;37287;47.554;7.844;2022-09-12T10:08:28;97798.84;;;25.02;49.46
50790;BME280;37287;47.554;7.844;2022-09-12T10:10:58;97799.72;;;25.23;50.92
50790;BME280;37287;47.554;7.844;2022-09-12T10:13:41;97796.09;;;25.17;48.64
50790;BME280;37287;47.554;7.844;2022-09-12T10:18:47;97778.78;;;24.93;51.46
50790;BME280;37287;47.554;7.844;2022-09-12T10:23:45;97780.94;;;24.74;50.58
50790;BME280;37287;47.554;7.844;2022-09-12T10:26:15;97776.69;;;25.02;51.48
50790;BME280;37287;47.554;7.844;2022-09-12T10:28:49;97779.00;;;25.49;50.59
50790;BME280;37287;47.554;7.844;2022-09-12T10:31:27;97776.88;;;25.29;47.91
50790;BME280;37287;47.554;7.844;2022-09-12T10:33:59;97778.44;;;25.30;50.72
50790;BME280;37287;47.554;7.844;2022-09-12T10:36:36;97781.50;;;25.32;50.60
50790;BME280;37287;47.554;7.844;2022-09-12T10:39:04;97774.59;;;25.57;50.55
50790;BME280;37287;47.554;7.844;2022-09-12T10:41:37;97773.09;;;26.06;49.02
50790;BME280;37287;47.554;7.844;2022-09-12T10:44:06;97770.94;;;26.16;49.29
50790;BME280;37287;47.554;7.844;2022-09-12T10:46:38;97769.69;;;26.38;49.04
50790;BME280;37287;47.554;7.844;2022-09-12T10:49:24;97766.66;;;26.36;47.37
50790;BME280;37287;47.554;7.844;2022-09-12T10:51:53;97779.97;;;25.96;49.28
50790;BME280;37287;47.554;7.844;2022-09-12T10:54:22;97774.41;;;26.11;49.94
50790;BME280;37287;47.554;7.844;2022-09-12T10:59:43;97748.72;;;26.57;46.55
50790;BME280;37287;47.554;7.844;2022-09-12T11:02:26;97742.59;;;26.27;49.32
50790;BME280;37287;47.554;7.844;2022-09-12T11:05:09;97749.03;;;26.59;47.64
50790;BME280;37287;47.554;7.844;2022-09-12T11:08:03;97750.69;;;26.10;47.98
50790;BME280;37287;47.554;7.844;2022-09-12T11:10:56;97752.81;;;26.62;47.18
50790;BME280;37287;47.554;7.844;2022-09-12T11:16:44;97736.75;;;26.92;45.24
50790;BME280;37287;47.554;7.844;2022-09-12T11:19:23;97740.50;;;26.42;48.46
50790;BME280;37287;47.554;7.844;2022-09-12T11:22:22;97737.06;;;26.53;46.37
50790;BME280;37287;47.554;7.844;2022-09-12T11:25:03;97739.56;;;26.72;47.71
50790;BME280;37287;47.554;7.844;2022-09-12T11:28:01;97739.28;;;26.49;46.82
50790;BME280;37287;47.554;7.844;2022-09-12T11:30:39;97733.31;;;26.77;46.63
50790;BME280;37287;47.554;7.844;2022-09-12T11:33:25;97736.50;;;26.96;44.98
50790;BME280;37287;47.554;7.844;2022-09-12T11:36:01;97731.88;;;27.14;46.39
50790;BME280;37287;47.554;7.844;2022-09-12T11:38:47;97720.13;;;26.98;44.83
50790;BME280;37287;47.554;7.844;2022-09-12T11:41:24;97716.88;;;27.00;46.85
50790;BME280;37287;47.554;7.844;2022-09-12T11:46:30;97717.94;;;26.35;44.53
50790;BME280;37287;47.554;7.844;2022-09-12T11:57:27;97711.31;;;27.63;43.37
50790;BME280;37287;47.554;7.844;2022-09-12T12:00:03;97717.94;;;27.72;44.36
50790;BME280;37287;47.554;7.844;2022-09-12T12:02:41;97711.78;;;28.00;42.04
50790;BME280;37287;47.554;7.844;2022-09-12T12:05:24;97714.25;;;27.92;43.71
50790;BME280;37287;47.554;7.844;2022-09-12T12:07:57;97711.69;;;27.83;44.90
50790;BME280;37287;47.554;7.844;2022-09-12T12:10:41;97709.31;;;27.70;40.50
50790;BME280;37287;47.554;7.844;2022-09-12T12:13:20;97705.22;;;27.27;42.80
50790;BME280;37287;47.554;7.844;2022-09-12T12:15:56;97693.50;;;27.87;43.34
50790;BME280;37287;47.554;7.844;2022-09-12T12:18:26;97690.97;;;27.89;43.65
50790;BME280;37287;47.554;7.844;2022-09-12T12:20:54;97694.34;;;28.05;43.67
50790;BME280;37287;47.554;7.844;2022-09-12T12:23:28;97692.44;;;28.28;40.50
50790;BME280;37287;47.554;7.844;2022-09-12T12:25:58;97683.91;;;27.94;43.21
50790;BME280;37287;47.554;7.844;2022-09-12T12:31:16;97683.75;;;27.60;43.44
50790;BME280;37287;47.554;7.844;2022-09-12T12:36:32;97681.31;;;27.79;39.65
50790;BME280;37287;47.554;7.844;2022-09-12T12:41:59;97676.00;;;27.81;43.20
50790;BME280;37287;47.554;7.844;2022-09-12T12:47:22;97667.28;;;28.00;41.01
50790;BME280;37287;47.554;7.844;2022-09-12T12:50:11;97662.50;;;27.62;42.22
50790;BME280;37287;47.554;7.844;2022-09-12T12:52:54;97663.91;;;27.84;43.25
50790;BME280;37287;47.554;7.844;2022-09-12T12:57:54;97652.75;;;27.78;42.29
50790;BME280;37287;47.554;7.844;2022-09-12T13:05:45;97641.78;;;27.63;42.15
50790;BME280;37287;47.554;7.844;2022-09-12T13:10:53;97642.31;;;27.68;39.22
50790;BME280;37287;47.554;7.844;2022-09-12T13:16:01;97644.66;;;27.86;42.89
50790;BME280;37287;47.554;7.844;2022-09-12T13:18:41;97645.22;;;27.96;41.02
50790;BME280;37287;47.554;7.844;2022-09-12T13:21:15;97642.44;;;27.47;43.09
50790;BME280;37287;47.554;7.844;2022-09-12T13:23:58;97636.25;;;27.26;42.26
50790;BME280;37287;47.554;7.844;2022-09-12T13:26:32;97636.09;;;27.41;41.97
50790;BME280;37287;47.554;7.844;2022-09-12T13:31:40;97619.81;;;27.66;43.39
50790;BME280;37287;47.554;7.844;2022-09-12T13:34:19;97622.25;;;27.52;42.11
50790;BME280;37287;47.554;7.844;2022-09-12T13:39:28;97614.94;;;27.55;41.59
50790;BME280;37287;47.554;7.844;2022-09-12T13:42:03;97612.31;;;27.40;42.05
50790;BME280;37287;47.554;7.844;2022-09-12T13:47:34;97605.31;;;27.50;42.12
50790;BME280;37287;47.554;7.844;2022-09-12T13:50:04;97616.16;;;27.48;43.20
50790;BME280;37287;47.554;7.844;2022-09-12T13:52:35;97614.94;;;27.17;42.40
50790;BME280;37287;47.554;7.844;2022-09-12T13:55:25;97600.16;;;27.32;40.92
50790;BME280;37287;47.554;7.844;2022-09-12T13:58:04;97597.22;;;27.47;41.19
50790;BME280;37287;47.554;7.844;2022-09-12T14:00:32;97594.97;;;27.56;42.44
50790;BME280;37287;47.554;7.844;2022-09-12T14:03:18;97604.06;;;27.51;40.34
50790;BME280;37287;47.554;7.844;2022-09-12T14:06:08;97596.59;;;27.31;36.97
50790;BME280;37287;47.554;7.844;2022-09-12T14:08:38;97595.31;;;27.26;42.51
50790;BME280;37287;47.554;7.844;2022-09-12T14:11:08;97587.91;;;27.55;41.83
50790;BME280;37287;47.554;7.844;2022-09-12T14:13:37;97584.13;;;27.64;41.80
50790;BME280;37287;47.554;7.844;2022-09-12T14:16:04;97589.47;;;27.68;41.72
50790;BME280;37287;47.554;7.844;2022-09-12T14:18:36;97590.25;;;27.74;40.73
50790;BME280;37287;47.554;7.844;2022-09-12T14:21:19;97584.00;;;27.90;39.73
50790;BME280;37287;47.554;7.844;2022-09-12T14:23:56;97579.44;;;27.87;41.06
50790;BME280;37287;47.554;7.844;2022-09-12T14:26:25;97583.50;;;27.97;40.59
50790;BME280;37287;47.554;7.844;2022-09-12T14:28:55;97579.75;;;28.06;39.83
50790;BME280;37287;47.554;7.844;2022-09-12T14:31:28;97573.44;;;28.11;39.52
50790;BME280;37287;47.554;7.844;2022-09-12T14:39:29;97568.88;;;28.03;37.17
50790;BME280;37287;47.554;7.844;2022-09-12T14:42:04;97572.22;;;28.18;37.53
50790;BME280;37287;47.554;7.844;2022-09-12T14:44:34;97569.41;;;28.07;37.99
50790;BME280;37287;47.554;7.844;2022-09-12T14:47:17;97567.75;;;27.77;36.65
50790;BME280;37287;47.554;7.844;2022-09-12T14:49:48;97567.44;;;27.64;38.27
50790;BME280;37287;47.554;7.844;2022-09-12T14:52:25;97560.31;;;27.46;37.32
50790;BME280;37287;47.554;7.844;2022-09-12T14:55:00;97560.56;;;27.48;37.37
50790;BME280;37287;47.554;7.844;2022-09-12T14:57:37;97560.56;;;27.48;37.71
50790;BME280;37287;47.554;7.844;2022-09-12T15:02:42;97551.34;;;27.25;37.51
50790;BME280;37287;47.554;7.844;2022-09-12T15:07:40;97545.97;;;27.16;37.39
50790;BME280;37287;47.554;7.844;2022-09-12T15:15:38;97543.50;;;27.23;35.96
50790;BME280;37287;47.554;7.844;2022-09-12T15:18:06;97540.47;;;27.27;35.51
50790;BME280;37287;47.554;7.844;2022-09-12T15:20:37;97549.25;;;27.14;34.91
50790;BME280;37287;47.554;7.844;2022-09-12T15:23:08;97546.81;;;27.27;35.70
50790;BME280;37287;47.554;7.844;2022-09-12T15:25:37;97547.78;;;27.24;35.34
50790;BME280;37287;47.554;7.844;2022-09-12T15:28:18;97546.88;;;27.39;33.11
50790;BME280;37287;47.554;7.844;2022-09-12T15:30:52;97546.94;;;27.50;35.15
50790;BME280;37287;47.554;7.844;2022-09-12T15:33:22;97544.00;;;27.22;35.61
50790;BME280;37287;47.554;7.844;2022-09-12T15:35:51;97548.06;;;26.89;35.59
50790;BME280;37287;47.554;7.844;2022-09-12T15:38:23;97543.28;;;26.57;36.86
50790;BME280;37287;47.554;7.844;2022-09-12T15:40:52;97542.25;;;26.55;36.90
50790;BME280;37287;47.554;7.844;2022-09-12T15:43:20;97539.72;;;26.51;37.46
50790;BME280;37287;47.554;7.844;2022-09-12T15:45:49;97540.66;;;26.42;37.64
50790;BME280;37287;47.554;7.844;2022-09-12T15:48:17;97542.94;;;26.44;37.70
50790;BME280;37287;47.554;7.844;2022-09-12T15:50:44;97542.50;;;26.25;38.11
50790;BME280;37287;47.554;7.844;2022-09-12T15:53:15;97536.44;;;26.00;38.35
50790;BME280;37287;47.554;7.844;2022-09-12T15:55:42;97529.31;;;25.94;38.35
50790;BME280;37287;47.554;7.844;2022-09-12T15:58:09;97525.69;;;26.08;38.32